createdAt,value
2017-07-02T00:02:21.106Z,20.10
2017-07-02T00:04:49.721Z,20.10
2017-07-02T00:07:17.989Z,20.10
2017-07-02T00:09:46.255Z,20.00
2017-07-02T00:12:14.939Z,20.00
2017-07-02T00:14:43.245Z,20.00
2017-07-02T00:17:12.380Z,20.00
2017-07-02T00:19:41.094Z,20.00
2017-07-02T00:22:09.423Z,20.00
2017-07-02T00:24:37.725Z,20.00
2017-07-02T00:27:06.341Z,20.00
2017-07-02T00:29:34.629Z,20.00
2017-07-02T00:32:02.913Z,20.00
2017-07-02T00:34:32.382Z,20.00
2017-07-02T00:37:00.744Z,19.90
2017-07-02T00:39:29.033Z,20.00
2017-07-02T00:41:57.862Z,20.00
2017-07-02T00:44:26.899Z,20.00
2017-07-02T00:46:55.310Z,20.00
2017-07-02T00:49:23.955Z,20.00
2017-07-02T00:51:52.239Z,20.00
2017-07-02T00:54:20.504Z,20.00
2017-07-02T00:56:49.204Z,20.10
2017-07-02T00:59:17.476Z,20.10
2017-07-02T01:01:45.802Z,20.10
2017-07-02T01:04:15.249Z,20.10
2017-07-02T01:06:43.732Z,20.10
2017-07-02T01:09:12.017Z,20.10
2017-07-02T01:11:40.653Z,20.10
2017-07-02T01:14:09.832Z,20.10
2017-07-02T01:16:38.108Z,20.10
2017-07-02T01:19:07.580Z,20.10
2017-07-02T01:21:35.865Z,20.10
2017-07-02T01:24:04.220Z,20.10
2017-07-02T01:26:32.812Z,20.10
2017-07-02T01:29:01.091Z,20.10
2017-07-02T01:31:29.378Z,20.10
2017-07-02T01:33:58.045Z,20.10
2017-07-02T01:36:26.422Z,20.00
2017-07-02T01:38:54.787Z,20.10
2017-07-02T01:41:23.405Z,20.00
2017-07-02T01:43:51.676Z,20.00
2017-07-02T01:46:19.984Z,20.00
2017-07-02T01:48:49.359Z,20.00
2017-07-02T01:51:17.643Z,20.00
2017-07-02T01:53:45.919Z,20.00
2017-07-02T01:56:14.570Z,20.00
2017-07-02T01:58:42.833Z,20.00
2017-07-02T02:01:29.457Z,20.00
2017-07-02T02:03:57.738Z,19.90
2017-07-02T02:06:26.029Z,19.90
2017-07-02T02:08:54.694Z,19.90
2017-07-02T02:11:22.984Z,19.90
2017-07-02T02:13:51.278Z,19.90
2017-07-02T02:16:20.763Z,19.90
2017-07-02T02:18:49.058Z,19.90
2017-07-02T02:21:18.418Z,19.90
2017-07-02T02:23:47.067Z,19.90
2017-07-02T02:26:15.350Z,19.90
2017-07-02T02:28:43.622Z,19.90
2017-07-02T02:31:12.251Z,19.90
2017-07-02T02:33:40.573Z,19.90
2017-07-02T02:36:08.861Z,19.90
2017-07-02T02:38:37.493Z,19.80
2017-07-02T02:41:05.775Z,19.80
2017-07-02T02:43:34.071Z,19.80
2017-07-02T02:46:02.808Z,19.80
2017-07-02T02:48:31.074Z,19.80
2017-07-02T02:51:00.215Z,19.80
2017-07-02T02:53:28.855Z,19.80
2017-07-02T02:55:57.242Z,19.80
2017-07-02T02:58:25.537Z,19.80
2017-07-02T03:00:54.198Z,19.80
2017-07-02T03:03:22.471Z,19.80
2017-07-02T03:05:50.753Z,19.80
2017-07-02T03:08:19.423Z,19.80
2017-07-02T03:10:47.710Z,19.70
2017-07-02T03:13:16.026Z,19.70
2017-07-02T03:15:45.492Z,19.70
2017-07-02T03:18:13.774Z,19.70
2017-07-02T03:20:42.101Z,19.70
2017-07-02T03:23:10.725Z,19.70
2017-07-02T03:25:39.022Z,19.70
2017-07-02T03:28:07.324Z,19.70
2017-07-02T03:30:36.738Z,19.70
2017-07-02T03:33:05.019Z,19.70
2017-07-02T03:35:33.284Z,19.80
2017-07-02T03:38:02.729Z,19.80
2017-07-02T03:40:31.162Z,19.80
2017-07-02T03:43:00.203Z,19.80
2017-07-02T03:45:28.883Z,19.80
2017-07-02T03:47:57.226Z,19.80
2017-07-02T03:50:25.537Z,19.90
2017-07-02T03:52:54.219Z,19.90
2017-07-02T03:55:22.508Z,19.90
2017-07-02T03:57:50.790Z,19.90
2017-07-02T04:00:19.421Z,20.00
2017-07-02T04:02:47.699Z,19.90
2017-07-02T04:05:16.042Z,19.90
2017-07-02T04:07:44.684Z,19.90
2017-07-02T04:10:12.981Z,19.90
2017-07-02T04:12:41.277Z,19.90
2017-07-02T04:15:10.670Z,19.90
2017-07-02T04:17:38.945Z,19.90
2017-07-02T04:20:07.221Z,19.90
2017-07-02T04:22:35.985Z,19.90
2017-07-02T04:25:04.274Z,20.00
2017-07-02T04:27:32.554Z,20.00
2017-07-02T04:30:01.221Z,19.90
2017-07-02T04:32:29.610Z,20.00
2017-07-02T04:34:57.893Z,20.00
2017-07-02T04:37:26.526Z,19.90
2017-07-02T04:39:54.793Z,19.90
2017-07-02T04:42:23.074Z,19.90
2017-07-02T04:44:51.753Z,19.90
2017-07-02T04:47:20.019Z,19.90
2017-07-02T04:49:49.074Z,19.90
2017-07-02T04:52:17.738Z,19.90
2017-07-02T04:54:46.019Z,19.90
2017-07-02T04:57:14.361Z,19.90
2017-07-02T04:59:43.079Z,19.80
2017-07-02T05:02:11.407Z,19.80
2017-07-02T05:04:40.463Z,19.80
2017-07-02T05:07:09.124Z,19.80
2017-07-02T05:09:37.458Z,19.80
2017-07-02T05:12:06.509Z,19.90
2017-07-02T05:14:35.108Z,19.90
2017-07-02T05:17:03.387Z,19.90
2017-07-02T05:19:31.662Z,19.90
2017-07-02T05:22:00.293Z,19.90
2017-07-02T05:24:28.617Z,19.90
2017-07-02T05:26:56.892Z,19.90
2017-07-02T05:29:25.550Z,19.90
2017-07-02T05:31:53.835Z,19.90
2017-07-02T05:34:22.121Z,19.80
2017-07-02T05:36:50.829Z,19.80
2017-07-02T05:39:19.868Z,19.80
2017-07-02T05:41:48.152Z,19.80
2017-07-02T05:44:16.965Z,19.80
2017-07-02T05:46:45.310Z,19.80
2017-07-02T05:49:13.579Z,19.80
2017-07-02T05:51:42.286Z,19.80
2017-07-02T05:54:10.586Z,19.80
2017-07-02T05:56:38.859Z,19.80
2017-07-02T05:59:07.516Z,19.80
2017-07-02T06:01:35.816Z,19.80
2017-07-02T06:04:04.098Z,19.90
2017-07-02T06:06:32.738Z,19.90
2017-07-02T06:09:01.000Z,19.90
2017-07-02T06:11:29.271Z,19.90
2017-07-02T06:13:58.007Z,20.00
2017-07-02T06:16:26.318Z,20.00
2017-07-02T06:18:55.383Z,20.00
2017-07-02T06:21:24.043Z,20.00
2017-07-02T06:23:52.322Z,20.00
2017-07-02T06:26:20.630Z,20.00
2017-07-02T06:28:49.364Z,20.00
2017-07-02T06:31:17.690Z,20.00
2017-07-02T06:33:45.976Z,20.10
2017-07-02T06:36:15.524Z,20.10
2017-07-02T06:38:43.806Z,20.10
2017-07-02T06:41:12.075Z,20.10
2017-07-02T06:43:40.743Z,20.20
2017-07-02T06:46:09.015Z,20.20
2017-07-02T06:48:37.290Z,20.20
2017-07-02T06:51:06.008Z,20.20
2017-07-02T06:53:34.294Z,20.10
2017-07-02T06:56:02.568Z,20.10
2017-07-02T06:58:31.399Z,20.10
2017-07-02T07:01:00.475Z,20.10
2017-07-02T07:03:28.758Z,20.10
2017-07-02T07:05:58.218Z,20.10
2017-07-02T07:08:26.506Z,20.00
2017-07-02T07:10:54.806Z,20.10
2017-07-02T07:13:23.569Z,20.10
2017-07-02T07:15:51.854Z,20.10
2017-07-02T07:18:20.130Z,20.10
2017-07-02T07:20:48.777Z,20.00
2017-07-02T07:23:17.073Z,20.00
2017-07-02T07:25:45.373Z,20.00
2017-07-02T07:28:13.998Z,20.00
2017-07-02T07:30:42.289Z,20.00
2017-07-02T07:33:10.589Z,20.00
2017-07-02T07:35:39.238Z,20.00
2017-07-02T07:38:07.582Z,20.00
2017-07-02T07:40:36.652Z,19.90
2017-07-02T07:43:05.327Z,19.90
2017-07-02T07:45:33.614Z,19.90
2017-07-02T07:48:01.898Z,20.00
2017-07-02T07:50:30.545Z,20.00
2017-07-02T07:52:58.825Z,20.00
2017-07-02T07:55:27.196Z,20.00
2017-07-02T07:57:55.907Z,19.90
2017-07-02T08:00:24.223Z,20.00
2017-07-02T08:02:53.265Z,19.90
2017-07-02T08:05:21.888Z,19.90
2017-07-02T08:07:50.896Z,19.90
2017-07-02T08:10:19.989Z,19.90
2017-07-02T08:12:49.421Z,19.90
2017-07-02T08:15:17.726Z,19.90
2017-07-02T08:17:46.019Z,19.90
2017-07-02T08:20:14.659Z,19.90
2017-07-02T08:22:42.941Z,19.90
2017-07-02T08:25:11.302Z,19.90
2017-07-02T08:27:40.009Z,19.90
2017-07-02T08:30:08.308Z,19.90
2017-07-02T08:32:36.607Z,19.90
2017-07-02T08:35:06.011Z,19.90
2017-07-02T08:37:35.074Z,19.90
2017-07-02T08:40:03.339Z,19.90
2017-07-02T08:42:32.100Z,19.90
2017-07-02T08:45:00.400Z,19.90
2017-07-02T08:47:28.691Z,19.90
2017-07-02T08:49:57.311Z,19.90
2017-07-02T08:52:25.575Z,19.90
2017-07-02T08:54:54.623Z,19.90
2017-07-02T08:57:23.316Z,19.90
2017-07-02T08:59:51.600Z,19.90
2017-07-02T09:02:19.905Z,20.00
2017-07-02T09:04:49.348Z,20.00
2017-07-02T09:07:17.637Z,20.00
2017-07-02T09:09:45.942Z,20.00
2017-07-02T09:12:14.574Z,20.00
2017-07-02T09:14:42.850Z,20.00
2017-07-02T09:17:11.139Z,20.00
2017-07-02T09:19:39.756Z,20.00
2017-07-02T09:22:08.898Z,20.00
2017-07-02T09:24:37.220Z,20.00
2017-07-02T09:27:05.804Z,20.00
2017-07-02T09:29:34.092Z,20.00
2017-07-02T09:32:02.377Z,20.10
2017-07-02T09:34:31.818Z,20.00
2017-07-02T09:37:00.198Z,20.00
2017-07-02T09:39:28.582Z,20.10
2017-07-02T09:41:57.275Z,20.10
2017-07-02T09:44:25.713Z,20.20
2017-07-02T09:46:54.063Z,20.30
2017-07-02T09:49:22.924Z,20.30
2017-07-02T09:51:51.207Z,20.50
2017-07-02T09:54:19.661Z,20.40
2017-07-02T09:56:48.380Z,20.60
2017-07-02T09:59:16.676Z,20.70
2017-07-02T10:01:44.971Z,20.80
2017-07-02T10:04:13.589Z,21.00
2017-07-02T10:06:41.876Z,21.10
2017-07-02T10:09:10.182Z,21.10
2017-07-02T10:11:38.941Z,21.10
2017-07-02T10:14:07.227Z,21.10
2017-07-02T10:16:35.533Z,21.10
2017-07-02T10:19:04.990Z,21.10
2017-07-02T10:21:33.277Z,21.10
2017-07-02T10:24:01.588Z,21.20
2017-07-02T10:26:31.234Z,21.30
2017-07-02T10:28:59.542Z,21.30
2017-07-02T10:31:27.825Z,21.30
2017-07-02T10:33:56.485Z,21.20
2017-07-02T10:36:24.801Z,21.20
2017-07-02T10:38:53.846Z,21.20
2017-07-02T10:41:22.538Z,21.20
2017-07-02T10:43:50.819Z,21.20
2017-07-02T10:46:19.124Z,21.20
2017-07-02T10:48:47.789Z,21.20
2017-07-02T10:51:16.108Z,21.10
2017-07-02T10:53:45.172Z,21.20
2017-07-02T10:56:13.860Z,21.10
2017-07-02T10:58:42.908Z,21.20
2017-07-02T11:01:11.207Z,21.20
2017-07-02T11:03:40.102Z,21.30
2017-07-02T11:06:09.545Z,21.30
2017-07-02T11:08:37.841Z,21.40
2017-07-02T11:11:06.568Z,21.40
2017-07-02T11:13:34.864Z,21.50
2017-07-02T11:16:03.142Z,21.60
2017-07-02T11:18:32.545Z,21.80
2017-07-02T11:21:01.603Z,21.80
2017-07-02T11:23:29.897Z,21.80
2017-07-02T11:25:58.752Z,21.80
2017-07-02T11:28:27.059Z,21.80
2017-07-02T11:30:55.354Z,21.80
2017-07-02T11:33:24.878Z,21.90
2017-07-02T11:35:53.164Z,21.90
2017-07-02T11:38:21.453Z,21.90
2017-07-02T11:40:50.149Z,21.90
2017-07-02T11:43:18.477Z,21.90
2017-07-02T11:45:47.635Z,21.90
2017-07-02T11:48:16.311Z,21.90
2017-07-02T11:50:44.653Z,21.90
2017-07-02T11:53:12.952Z,22.00
2017-07-02T11:55:41.630Z,22.00
2017-07-02T11:58:09.916Z,22.10
2017-07-02T12:00:38.214Z,22.00
2017-07-02T12:03:06.852Z,22.00
2017-07-02T12:05:35.242Z,22.00
2017-07-02T12:08:03.537Z,22.00
2017-07-02T12:10:32.154Z,22.00
2017-07-02T12:13:00.436Z,21.90
2017-07-02T12:15:29.503Z,21.90
2017-07-02T12:17:58.233Z,21.80
2017-07-02T12:20:27.283Z,21.80
2017-07-02T12:22:55.573Z,21.80
2017-07-02T12:25:24.270Z,21.80
2017-07-02T12:27:53.337Z,22.00
2017-07-02T12:30:21.627Z,22.00
2017-07-02T12:32:50.273Z,22.10
2017-07-02T12:35:18.644Z,22.10
2017-07-02T12:37:47.023Z,22.10
2017-07-02T12:40:15.647Z,22.00
2017-07-02T12:42:43.973Z,22.00
2017-07-02T12:45:12.338Z,22.00
2017-07-02T12:47:40.989Z,22.00
2017-07-02T12:50:09.295Z,22.00
2017-07-02T12:52:37.591Z,22.10
2017-07-02T12:55:06.522Z,22.00
2017-07-02T12:57:34.808Z,22.00
2017-07-02T13:00:03.117Z,22.00
2017-07-02T13:02:32.149Z,22.00
2017-07-02T13:05:00.416Z,21.90
2017-07-02T13:07:28.726Z,21.90
2017-07-02T13:09:57.686Z,21.90
2017-07-02T13:12:26.011Z,22.00
2017-07-02T13:14:55.145Z,22.00
2017-07-02T13:17:23.831Z,22.00
2017-07-02T13:19:52.134Z,22.00
2017-07-02T13:22:20.416Z,22.00
2017-07-02T13:24:49.186Z,22.00
2017-07-02T13:27:17.475Z,21.90
2017-07-02T13:29:45.751Z,22.00
2017-07-02T13:32:14.427Z,21.90
2017-07-02T13:34:42.789Z,21.90
2017-07-02T13:37:11.065Z,21.90
2017-07-02T13:39:39.765Z,22.00
2017-07-02T13:42:08.047Z,22.00
2017-07-02T13:44:36.353Z,22.00
2017-07-02T13:47:05.818Z,22.00
2017-07-02T13:49:34.157Z,22.00
2017-07-02T13:52:02.436Z,22.00
2017-07-02T13:54:31.166Z,22.10
2017-07-02T13:56:59.452Z,22.00
2017-07-02T13:59:27.771Z,21.90
2017-07-02T14:01:56.511Z,22.00
2017-07-02T14:04:24.879Z,22.00
2017-07-02T14:06:53.210Z,22.10
2017-07-02T14:09:21.927Z,22.20
2017-07-02T14:11:50.239Z,22.20
2017-07-02T14:14:18.611Z,22.20
2017-07-02T14:16:47.271Z,22.10
2017-07-02T14:19:15.598Z,22.10
2017-07-02T14:21:44.715Z,22.10
2017-07-02T14:24:13.474Z,22.10
2017-07-02T14:26:42.517Z,22.00
2017-07-02T14:29:10.822Z,22.00
2017-07-02T14:31:39.678Z,22.00
2017-07-02T14:34:07.970Z,22.00
2017-07-02T14:36:36.288Z,22.00
2017-07-02T14:39:05.010Z,22.00
2017-07-02T14:41:33.280Z,22.10
2017-07-02T14:44:01.582Z,22.10
2017-07-02T14:46:30.254Z,22.10
2017-07-02T14:48:58.548Z,22.00
2017-07-02T14:51:26.896Z,22.00
2017-07-02T14:53:55.615Z,22.00
2017-07-02T14:56:23.921Z,22.10
2017-07-02T14:58:52.961Z,22.20
2017-07-02T15:01:21.664Z,22.20
2017-07-02T15:03:49.961Z,22.10
2017-07-02T15:06:18.269Z,22.00
2017-07-02T15:08:46.969Z,21.90
2017-07-02T15:11:15.273Z,22.00
2017-07-02T15:13:43.626Z,22.00
2017-07-02T15:16:12.318Z,22.00
2017-07-02T15:18:40.653Z,22.00
2017-07-02T15:21:09.707Z,21.90
2017-07-02T15:23:38.385Z,21.90
2017-07-02T15:26:06.709Z,21.90
2017-07-02T15:28:35.136Z,21.90
2017-07-02T15:31:03.863Z,21.90
2017-07-02T15:33:32.944Z,21.90
2017-07-02T15:36:01.381Z,21.90
2017-07-02T15:38:30.115Z,22.00
2017-07-02T15:40:59.212Z,22.10
2017-07-02T15:43:28.319Z,22.10
2017-07-02T15:45:57.716Z,22.20
2017-07-02T15:48:26.025Z,22.10
2017-07-02T15:50:54.406Z,22.20
2017-07-02T15:53:23.123Z,22.10
2017-07-02T15:55:51.447Z,22.10
2017-07-02T15:58:20.330Z,22.20
2017-07-02T16:00:49.791Z,22.10
2017-07-02T16:03:18.152Z,22.10
2017-07-02T16:05:46.405Z,22.10
2017-07-02T16:08:15.145Z,22.10
2017-07-02T16:10:43.407Z,22.20
2017-07-02T16:13:11.699Z,22.20
2017-07-02T16:15:40.355Z,22.20
2017-07-02T16:18:08.678Z,22.20
2017-07-02T16:20:37.127Z,22.10
2017-07-02T16:23:05.758Z,22.10
2017-07-02T16:25:34.091Z,22.10
2017-07-02T16:28:02.361Z,22.10
2017-07-02T16:30:31.124Z,22.10
2017-07-02T16:32:59.438Z,22.10
2017-07-02T16:35:27.758Z,22.20
2017-07-02T16:37:56.478Z,22.10
2017-07-02T16:40:24.774Z,22.10
2017-07-02T16:42:53.087Z,22.10
2017-07-02T16:45:21.819Z,22.10
2017-07-02T16:47:50.114Z,22.10
2017-07-02T16:50:18.436Z,22.10
2017-07-02T16:52:47.202Z,22.10
2017-07-02T16:55:15.539Z,22.10
2017-07-02T16:57:43.863Z,22.00
2017-07-02T17:00:12.621Z,22.10
2017-07-02T17:02:41.704Z,22.10
2017-07-02T17:05:10.044Z,22.00
2017-07-02T17:07:38.759Z,22.00
2017-07-02T17:10:07.089Z,22.10
2017-07-02T17:12:35.421Z,22.00
2017-07-02T17:15:04.092Z,22.00
2017-07-02T17:17:32.402Z,22.00
2017-07-02T17:20:01.545Z,21.90
2017-07-02T17:22:30.251Z,21.90
2017-07-02T17:24:58.652Z,21.90
2017-07-02T17:27:27.752Z,22.00
2017-07-02T17:29:56.518Z,21.90
2017-07-02T17:32:24.851Z,22.00
2017-07-02T17:34:53.204Z,22.00
2017-07-02T17:37:21.869Z,22.00
2017-07-02T17:39:50.968Z,21.90
2017-07-02T17:42:20.074Z,21.90
2017-07-02T17:44:48.854Z,21.90
2017-07-02T17:47:17.982Z,21.80
2017-07-02T17:49:46.303Z,21.80
2017-07-02T17:52:15.083Z,21.80
2017-07-02T17:54:43.371Z,21.80
2017-07-02T17:57:11.681Z,21.80
2017-07-02T17:59:40.363Z,21.80
2017-07-02T18:02:08.728Z,21.80
2017-07-02T18:04:37.142Z,21.80
2017-07-02T18:07:05.780Z,21.80
2017-07-02T18:09:34.301Z,21.90
2017-07-02T18:12:02.659Z,21.90
2017-07-02T18:14:31.484Z,21.90
2017-07-02T18:16:59.802Z,21.90
2017-07-02T18:19:28.899Z,21.80
2017-07-02T18:21:57.558Z,21.80
2017-07-02T18:24:25.884Z,21.80
2017-07-02T18:26:54.233Z,21.80
2017-07-02T18:29:23.698Z,21.80
2017-07-02T18:31:52.011Z,21.80
2017-07-02T18:34:20.340Z,21.80
2017-07-02T18:36:49.169Z,21.80
2017-07-02T18:39:17.522Z,21.80
2017-07-02T18:41:45.869Z,21.80
2017-07-02T18:44:14.613Z,21.80
2017-07-02T18:46:42.963Z,21.80
2017-07-02T18:49:11.349Z,21.70
2017-07-02T18:51:40.059Z,21.70
2017-07-02T18:54:09.146Z,21.70
2017-07-02T18:56:37.493Z,21.70
2017-07-02T18:59:06.196Z,21.70
2017-07-02T19:01:34.585Z,21.70
2017-07-02T19:04:02.922Z,21.70
2017-07-02T19:06:31.622Z,21.70
2017-07-02T19:08:59.937Z,21.60
2017-07-02T19:11:29.044Z,21.60
2017-07-02T19:13:57.787Z,21.60
2017-07-02T19:16:26.144Z,21.60
2017-07-02T19:18:54.479Z,21.60
2017-07-02T19:21:23.159Z,21.50
2017-07-02T19:23:52.320Z,21.50
2017-07-02T19:26:20.699Z,21.50
2017-07-02T19:28:49.515Z,21.50
2017-07-02T19:31:18.637Z,21.50
2017-07-02T19:33:46.955Z,21.50
2017-07-02T19:36:15.691Z,21.50
2017-07-02T19:38:44.035Z,21.40
2017-07-02T19:41:12.385Z,21.40
2017-07-02T19:43:41.116Z,21.40
2017-07-02T19:46:10.153Z,21.40
2017-07-02T19:48:38.479Z,21.40
2017-07-02T19:51:07.964Z,21.30
2017-07-02T19:53:36.290Z,21.30
2017-07-02T19:56:04.627Z,21.30
2017-07-02T19:58:33.388Z,21.30
2017-07-02T20:01:01.700Z,21.30
2017-07-02T20:03:30.833Z,21.30
2017-07-02T20:05:59.517Z,21.30
2017-07-02T20:08:27.826Z,21.30
2017-07-02T20:10:56.136Z,21.30
2017-07-02T20:13:25.598Z,21.30
2017-07-02T20:15:53.898Z,21.30
2017-07-02T20:18:22.216Z,21.30
2017-07-02T20:20:50.918Z,21.30
2017-07-02T20:23:19.314Z,21.30
2017-07-02T20:25:47.618Z,21.30
2017-07-02T20:28:16.323Z,21.30
2017-07-02T20:30:45.416Z,21.30
2017-07-02T20:33:14.461Z,21.30
2017-07-02T20:35:43.161Z,21.30
2017-07-02T20:38:11.443Z,21.30
2017-07-02T20:40:39.740Z,21.30
2017-07-02T20:43:09.302Z,21.30
2017-07-02T20:45:37.606Z,21.30
2017-07-02T20:48:05.927Z,21.30
2017-07-02T20:50:34.769Z,21.30
2017-07-02T20:53:03.173Z,21.30
2017-07-02T20:55:31.595Z,21.30
2017-07-02T20:58:00.289Z,21.30
2017-07-02T21:00:28.579Z,21.20
2017-07-02T21:02:56.900Z,21.20
2017-07-02T21:05:25.609Z,21.20
2017-07-02T21:07:53.873Z,21.20
2017-07-02T21:10:22.204Z,21.20
2017-07-02T21:12:50.867Z,21.20
2017-07-02T21:15:19.330Z,21.20
2017-07-02T21:17:47.635Z,21.10
2017-07-02T21:20:16.399Z,21.10
2017-07-02T21:22:44.712Z,21.10
2017-07-02T21:25:12.997Z,21.10
2017-07-02T21:27:42.560Z,21.10
2017-07-02T21:30:10.846Z,21.10
2017-07-02T21:32:39.174Z,21.10
2017-07-02T21:35:07.893Z,21.10
2017-07-02T21:37:36.165Z,21.10
2017-07-02T21:40:04.471Z,21.10
2017-07-02T21:42:33.227Z,21.10
2017-07-02T21:45:01.473Z,21.00
2017-07-02T21:47:29.778Z,21.00
2017-07-02T21:49:58.421Z,21.00
2017-07-02T21:52:27.536Z,21.00
2017-07-02T21:54:55.896Z,21.00
2017-07-02T21:57:24.615Z,21.00
2017-07-02T21:59:52.918Z,21.00
2017-07-02T22:02:21.216Z,21.00
2017-07-02T22:04:50.820Z,20.90
2017-07-02T22:07:19.884Z,21.00
2017-07-02T22:09:48.176Z,21.00
2017-07-02T22:12:16.862Z,21.00
2017-07-02T22:14:45.096Z,20.90
2017-07-02T22:17:13.400Z,20.90
2017-07-02T22:19:42.069Z,20.90
2017-07-02T22:22:10.356Z,20.90
2017-07-02T22:24:38.680Z,20.90
2017-07-02T22:27:07.333Z,20.90
2017-07-02T22:29:35.626Z,20.80
2017-07-02T22:32:04.674Z,20.80
2017-07-02T22:34:33.364Z,20.80
2017-07-02T22:37:01.676Z,20.80
2017-07-02T22:39:30.067Z,20.80
2017-07-02T22:41:59.518Z,20.70
2017-07-02T22:44:28.011Z,20.70
2017-07-02T22:46:56.296Z,20.70
2017-07-02T22:49:24.997Z,20.70
2017-07-02T22:51:53.286Z,20.70
2017-07-02T22:54:22.343Z,20.60
2017-07-02T22:56:51.018Z,20.60
2017-07-02T22:59:19.306Z,20.60
2017-07-02T23:01:47.598Z,20.60
2017-07-02T23:04:16.219Z,20.60
2017-07-02T23:06:44.563Z,20.60
2017-07-02T23:09:12.983Z,20.60
2017-07-02T23:11:41.646Z,20.50
2017-07-02T23:14:09.930Z,20.60
2017-07-02T23:16:38.215Z,20.50
2017-07-02T23:19:06.859Z,20.50
2017-07-02T23:21:35.210Z,20.40
2017-07-02T23:24:03.632Z,20.40
2017-07-02T23:26:33.022Z,20.40
2017-07-02T23:29:01.300Z,20.40
2017-07-02T23:31:30.334Z,20.40
2017-07-02T23:33:58.972Z,20.30
2017-07-02T23:36:27.242Z,20.30
2017-07-02T23:38:55.522Z,20.30
2017-07-02T23:41:24.262Z,20.30
2017-07-02T23:43:52.544Z,20.30
2017-07-02T23:46:20.894Z,20.30
2017-07-02T23:48:49.662Z,20.30
2017-07-02T23:51:18.696Z,20.30
2017-07-02T23:53:46.978Z,20.30
2017-07-02T23:56:15.627Z,20.20
2017-07-02T23:58:44.034Z,20.30
